createdAt,value
2022-08-01T00:00:36.499Z,20.60
2022-08-01T00:04:38.397Z,20.50
2022-08-01T00:08:40.159Z,20.40
2022-08-01T00:12:43.184Z,20.50
2022-08-01T00:16:45.093Z,20.50
2022-08-01T00:20:46.826Z,20.20
2022-08-01T00:24:48.538Z,20.50
2022-08-01T00:28:50.284Z,20.30
2022-08-01T00:32:52.009Z,20.30
2022-08-01T00:36:54.004Z,20.20
2022-08-01T00:40:55.826Z,20.30
2022-08-01T00:44:57.623Z,20.20
2022-08-01T00:49:00.591Z,20.10
2022-08-01T00:53:03.473Z,20.20
2022-08-01T00:57:08.543Z,20.10
2022-08-01T01:01:12.235Z,20.10
2022-08-01T01:05:14.754Z,20.20
2022-08-01T01:09:20.904Z,20.20
2022-08-01T01:13:31.537Z,20.00
2022-08-01T01:17:57.404Z,20.20
2022-08-01T01:22:19.054Z,20.20
2022-08-01T01:26:26.618Z,20.10
2022-08-01T01:30:30.798Z,20.00
2022-08-01T01:34:37.059Z,20.00
2022-08-01T01:38:43.007Z,19.90
2022-08-01T01:42:45.754Z,19.80
2022-08-01T01:46:49.565Z,19.80
2022-08-01T01:50:53.275Z,19.90
2022-08-01T01:54:56.832Z,20.00
2022-08-01T01:59:02.901Z,20.00
2022-08-01T02:03:08.591Z,20.00
2022-08-01T02:07:13.922Z,19.70
2022-08-01T02:11:22.736Z,19.60
2022-08-01T02:15:25.840Z,19.40
2022-08-01T02:19:28.186Z,19.60
2022-08-01T02:23:34.828Z,19.80
2022-08-01T02:27:45.103Z,19.70
2022-08-01T02:31:48.699Z,19.70
2022-08-01T02:36:30.451Z,19.70
2022-08-01T02:40:23.712Z,19.70
2022-08-01T02:44:31.100Z,19.60
2022-08-01T02:48:36.389Z,19.60
2022-08-01T02:52:39.990Z,19.60
2022-08-01T02:56:43.706Z,19.70
2022-08-01T03:00:46.503Z,19.80
2022-08-01T03:04:56.786Z,19.70
2022-08-01T03:09:01.084Z,19.70
2022-08-01T03:13:05.032Z,19.60
2022-08-01T03:17:09.192Z,19.50
2022-08-01T03:21:12.933Z,19.70
2022-08-01T03:25:16.343Z,19.70
2022-08-01T03:29:22.932Z,19.40
2022-08-01T03:33:24.780Z,19.50
2022-08-01T03:37:49.693Z,19.50
2022-08-01T03:42:11.472Z,19.40
2022-08-01T03:46:21.771Z,19.40
2022-08-01T03:50:27.868Z,19.50
2022-08-01T03:54:37.474Z,19.60
2022-08-01T03:58:43.325Z,19.70
2022-08-01T04:02:49.500Z,19.60
2022-08-01T04:06:54.937Z,19.70
2022-08-01T04:10:56.785Z,19.60
2022-08-01T04:14:58.558Z,19.70
2022-08-01T04:19:00.387Z,19.70
2022-08-01T04:23:02.398Z,19.60
2022-08-01T04:27:10.580Z,19.70
2022-08-01T04:31:15.075Z,19.60
2022-08-01T04:35:23.121Z,19.60
2022-08-01T04:39:51.225Z,19.70
2022-08-01T04:43:55.097Z,19.50
2022-08-01T04:47:58.782Z,19.60
2022-08-01T04:52:01.261Z,19.50
2022-08-01T04:56:03.082Z,19.40
2022-08-01T05:00:05.777Z,19.50
2022-08-01T05:04:07.520Z,19.70
2022-08-01T05:08:09.887Z,19.70
2022-08-01T05:12:12.239Z,19.80
2022-08-01T05:16:14.009Z,19.80
2022-08-01T05:20:15.960Z,19.80
2022-08-01T05:24:17.975Z,19.90
2022-08-01T05:28:19.721Z,19.80
2022-08-01T05:32:21.509Z,19.90
2022-08-01T05:36:23.449Z,19.80
2022-08-01T05:40:27.820Z,19.70
2022-08-01T05:44:29.791Z,19.70
2022-08-01T05:48:31.712Z,19.60
2022-08-01T05:52:33.627Z,19.70
2022-08-01T05:56:35.743Z,19.60
2022-08-01T06:00:37.615Z,19.60
2022-08-01T06:04:42.819Z,19.50
2022-08-01T06:08:47.822Z,19.70
2022-08-01T06:12:54.297Z,19.60
2022-08-01T06:16:56.428Z,19.80
2022-08-01T06:20:58.525Z,19.90
2022-08-01T06:25:00.414Z,19.90
2022-08-01T06:29:02.454Z,20.20
2022-08-01T06:33:06.767Z,20.00
2022-08-01T06:37:08.721Z,20.00
2022-08-01T06:41:10.765Z,19.90
2022-08-01T06:45:14.919Z,20.10
2022-08-01T06:49:16.805Z,20.20
2022-08-01T06:53:18.840Z,20.10
2022-08-01T06:57:21.308Z,20.20
2022-08-01T07:01:23.309Z,20.20
2022-08-01T07:05:25.440Z,20.10
2022-08-01T07:09:27.867Z,20.30
2022-08-01T07:13:43.886Z,20.20
2022-08-01T07:17:46.170Z,20.20
2022-08-01T07:21:50.162Z,20.10
2022-08-01T07:25:55.884Z,20.00
2022-08-01T07:30:00.656Z,20.10
2022-08-01T07:34:02.676Z,20.10
2022-08-01T07:38:12.567Z,20.30
2022-08-01T07:42:16.407Z,20.10
2022-08-01T07:46:18.351Z,20.20
2022-08-01T07:50:20.492Z,20.20
2022-08-01T07:54:33.790Z,20.30
2022-08-01T07:58:36.601Z,20.40
2022-08-01T08:02:38.387Z,20.30
2022-08-01T08:06:40.194Z,20.40
2022-08-01T08:10:42.409Z,20.40
2022-08-01T08:14:44.147Z,20.30
2022-08-01T08:18:46.047Z,20.40
2022-08-01T08:22:47.853Z,20.70
2022-08-01T08:26:52.221Z,20.90
2022-08-01T08:30:56.172Z,21.00
2022-08-01T08:35:00.859Z,21.20
2022-08-01T08:39:04.156Z,21.20
2022-08-01T08:43:06.957Z,21.00
2022-08-01T08:47:11.695Z,21.00
2022-08-01T08:51:18.830Z,21.00
2022-08-01T08:55:22.472Z,21.30
2022-08-01T08:59:27.360Z,21.20
2022-08-01T09:03:29.238Z,21.10
2022-08-01T09:07:31.026Z,21.20
2022-08-01T09:11:33.255Z,21.40
2022-08-01T09:15:51.275Z,21.60
2022-08-01T09:19:57.767Z,21.60
2022-08-01T09:24:03.901Z,21.80
2022-08-01T09:28:07.119Z,21.90
2022-08-01T09:32:09.373Z,22.00
2022-08-01T09:36:18.633Z,21.80
2022-08-01T09:40:21.091Z,21.60
2022-08-01T09:44:54.337Z,21.90
2022-08-01T09:49:10.641Z,22.40
2022-08-01T09:53:29.777Z,22.90
2022-08-01T09:57:32.369Z,23.30
2022-08-01T10:01:45.569Z,22.50
2022-08-01T10:05:50.185Z,22.20
2022-08-01T10:09:52.542Z,22.10
2022-08-01T10:13:55.569Z,22.30
2022-08-01T10:18:00.016Z,22.30
2022-08-01T10:22:05.702Z,22.10
2022-08-01T10:26:08.857Z,22.20
2022-08-01T10:30:19.489Z,22.10
2022-08-01T10:34:27.371Z,21.90
2022-08-01T10:38:31.839Z,22.00
2022-08-01T10:42:35.474Z,22.30
2022-08-01T10:46:39.979Z,22.00
2022-08-01T10:50:52.357Z,21.90
2022-08-01T10:55:12.121Z,21.70
2022-08-01T10:59:49.725Z,21.80
2022-08-01T11:04:17.729Z,21.90
2022-08-01T11:08:24.193Z,21.90
2022-08-01T11:12:40.040Z,22.20
2022-08-01T11:16:42.405Z,22.40
2022-08-01T11:21:58.062Z,22.40
2022-08-01T11:25:20.445Z,22.70
2022-08-01T11:29:44.062Z,22.50
2022-08-01T11:33:49.810Z,23.40
2022-08-01T11:37:56.368Z,22.10
2022-08-01T11:42:21.415Z,21.50
2022-08-01T11:51:01.848Z,21.10
2022-08-01T11:55:16.707Z,21.30
2022-08-01T12:00:08.760Z,21.10
2022-08-01T12:04:10.829Z,21.40
2022-08-01T12:09:01.195Z,21.60
2022-08-01T12:14:26.592Z,21.70
2022-08-01T12:18:54.667Z,21.60
2022-08-01T12:28:18.967Z,22.20
2022-08-01T12:32:58.318Z,22.30
2022-08-01T12:47:53.468Z,21.90
2022-08-01T12:51:57.074Z,22.00
2022-08-01T13:01:08.113Z,22.30
2022-08-01T13:05:10.843Z,22.50
2022-08-01T13:09:17.580Z,22.50
2022-08-01T13:13:28.495Z,22.80
2022-08-01T13:17:37.022Z,23.10
2022-08-01T13:21:53.652Z,23.10
2022-08-01T13:25:58.203Z,23.00
2022-08-01T13:30:23.753Z,22.70
2022-08-01T13:34:36.156Z,22.80
2022-08-01T13:38:57.084Z,22.70
2022-08-01T13:42:59.276Z,22.60
2022-08-01T13:47:14.983Z,22.60
2022-08-01T13:51:23.698Z,22.50
2022-08-01T13:55:25.702Z,22.40
2022-08-01T13:59:27.678Z,22.40
2022-08-01T14:03:33.551Z,22.40
2022-08-01T14:07:38.119Z,22.40
2022-08-01T14:11:45.975Z,22.60
2022-08-01T14:15:51.174Z,22.60
2022-08-01T14:19:59.927Z,22.60
2022-08-01T14:24:02.636Z,22.80
2022-08-01T14:28:04.972Z,23.00
2022-08-01T14:32:17.836Z,22.80
2022-08-01T14:36:30.065Z,22.90
2022-08-01T14:40:36.979Z,23.00
2022-08-01T14:44:39.748Z,23.00
2022-08-01T14:48:53.452Z,22.90
2022-08-01T14:52:56.026Z,22.80
2022-08-01T15:02:02.851Z,23.00
2022-08-01T15:06:13.926Z,23.20
2022-08-01T15:10:20.042Z,23.40
2022-08-01T15:15:06.117Z,23.60
2022-08-01T15:19:09.145Z,23.60
2022-08-01T15:23:11.082Z,23.80
2022-08-01T15:27:21.400Z,23.50
2022-08-01T15:31:32.402Z,23.50
2022-08-01T15:35:34.633Z,23.40
2022-08-01T15:39:40.564Z,23.70
2022-08-01T15:43:56.834Z,23.70
2022-08-01T15:48:00.973Z,23.70
2022-08-01T15:52:05.460Z,23.50
2022-08-01T15:56:08.497Z,23.50
2022-08-01T16:00:11.666Z,23.60
2022-08-01T16:04:19.533Z,23.60
2022-08-01T16:08:28.866Z,23.70
2022-08-01T16:12:30.739Z,23.70
2022-08-01T16:16:36.726Z,23.70
2022-08-01T16:20:53.301Z,23.50
2022-08-01T16:25:08.455Z,23.40
2022-08-01T16:29:25.090Z,23.30
2022-08-01T16:33:50.622Z,23.30
2022-08-01T16:37:49.373Z,23.10
2022-08-01T16:41:56.011Z,23.10
2022-08-01T16:46:02.722Z,23.10
2022-08-01T16:50:05.175Z,23.20
2022-08-01T16:59:00.422Z,23.30
2022-08-01T17:03:02.394Z,23.30
2022-08-01T17:07:20.268Z,23.30
2022-08-01T17:11:22.512Z,23.40
2022-08-01T17:15:26.362Z,23.40
2022-08-01T17:19:33.279Z,23.40
2022-08-01T17:23:51.539Z,23.10
2022-08-01T17:28:02.564Z,22.90
2022-08-01T17:32:04.700Z,22.80
2022-08-01T17:36:22.978Z,22.80
2022-08-01T17:40:39.666Z,22.90
2022-08-01T17:44:49.262Z,23.00
2022-08-01T17:48:57.288Z,22.80
2022-08-01T17:53:00.289Z,22.80
2022-08-01T17:57:08.215Z,22.80
2022-08-01T18:01:10.874Z,23.20
2022-08-01T18:05:13.015Z,22.90
2022-08-01T18:09:24.883Z,22.80
2022-08-01T18:13:47.115Z,22.70
2022-08-01T18:17:51.358Z,22.50
2022-08-01T18:22:02.393Z,22.60
2022-08-01T18:26:08.804Z,22.50
2022-08-01T18:30:15.548Z,22.40
2022-08-01T18:34:18.474Z,22.30
2022-08-01T18:38:26.562Z,22.20
2022-08-01T18:42:54.762Z,22.20
2022-08-01T18:46:57.152Z,22.20
2022-08-01T18:51:01.696Z,22.20
2022-08-01T18:55:06.012Z,22.00
2022-08-01T18:59:09.395Z,21.80
2022-08-01T19:03:28.107Z,21.80
2022-08-01T19:07:54.907Z,21.80
2022-08-01T19:12:05.276Z,21.60
2022-08-01T19:16:12.566Z,21.40
2022-08-01T19:20:18.594Z,21.40
2022-08-01T19:24:23.401Z,21.30
2022-08-01T19:28:31.738Z,21.20
2022-08-01T19:32:37.063Z,21.20
2022-08-01T19:36:40.189Z,21.20
2022-08-01T19:40:43.237Z,21.00
2022-08-01T19:44:46.895Z,20.90
2022-08-01T19:53:14.851Z,21.00
2022-08-01T19:57:18.796Z,20.90
2022-08-01T20:01:20.991Z,20.80
2022-08-01T20:05:26.330Z,20.80
2022-08-01T20:09:29.609Z,20.80
2022-08-01T20:13:39.110Z,20.70
2022-08-01T20:17:45.490Z,20.70
2022-08-01T20:22:10.740Z,20.60
2022-08-01T20:26:18.755Z,20.50
2022-08-01T20:30:20.544Z,20.40
2022-08-01T20:34:24.249Z,20.40
2022-08-01T20:38:28.562Z,20.30
2022-08-01T20:42:37.050Z,20.20
2022-08-01T20:46:42.341Z,20.20
2022-08-01T20:51:04.182Z,19.90
2022-08-01T20:55:06.185Z,19.90
2022-08-01T20:59:56.631Z,19.90
2022-08-01T21:04:17.434Z,19.90
2022-08-01T21:08:25.488Z,19.80
2022-08-01T21:12:40.936Z,19.60
2022-08-01T21:16:49.566Z,19.20
2022-08-01T21:21:03.137Z,19.30
2022-08-01T21:25:07.789Z,19.30
2022-08-01T21:29:10.972Z,19.50
2022-08-01T21:33:17.343Z,19.30
2022-08-01T21:37:19.094Z,18.50
2022-08-01T21:42:03.412Z,18.40
2022-08-01T21:45:57.857Z,18.50
2022-08-01T21:50:04.306Z,18.60
2022-08-01T21:54:36.929Z,18.50
2022-08-01T21:58:54.590Z,18.30
2022-08-01T22:03:19.048Z,18.30
2022-08-01T22:07:23.958Z,18.30
2022-08-01T22:11:29.171Z,17.80
2022-08-01T22:15:44.879Z,17.80
2022-08-01T22:19:53.554Z,17.80
2022-08-01T22:23:55.954Z,17.60
2022-08-01T22:28:02.854Z,17.70
2022-08-01T22:32:14.639Z,17.60
2022-08-01T22:36:17.174Z,17.40
2022-08-01T22:40:18.942Z,17.40
2022-08-01T22:44:30.049Z,17.20
2022-08-01T22:48:56.270Z,17.10
2022-08-01T22:53:25.945Z,17.20
2022-08-01T22:57:50.157Z,17.00
2022-08-01T23:01:53.249Z,17.00
2022-08-01T23:06:01.260Z,17.10
2022-08-01T23:10:05.649Z,17.10
2022-08-01T23:14:08.142Z,16.90
2022-08-01T23:18:11.521Z,17.00
2022-08-01T23:22:13.944Z,16.90
2022-08-01T23:26:16.797Z,17.00
2022-08-01T23:30:18.521Z,17.00
2022-08-01T23:34:20.345Z,16.90
2022-08-01T23:38:22.108Z,16.80
2022-08-01T23:42:24.202Z,16.70
2022-08-01T23:46:26.077Z,16.70
2022-08-01T23:50:28.357Z,16.60
2022-08-01T23:54:30.605Z,16.50
2022-08-01T23:58:34.018Z,16.50
